Time,TemperatureF,DewpointF,PressureIn,WindDirection,WindDirectionDegrees,WindSpeedMPH,WindSpeedGustMPH,Humidity,HourlyPrecipIn,Conditions,Clouds,dailyrainin,SoftwareType,DateUTC
2013-05-15 00:05:00,52.7,45.7,29.82,NNE,22,3.7,-999.0,77,-99.99,,,0.00,Acu-Link.com,2013-05-15 07:05:00,
2013-05-15 00:20:00,52.7,45.7,29.82,NW,315,1.7,-999.0,77,-99.99,,,0.00,Acu-Link.com,2013-05-15 07:20:00,
2013-05-15 00:35:00,52.3,45.6,29.82,West,270,0.0,-999.0,78,-99.99,,,0.00,Acu-Link.com,2013-05-15 07:35:00,
2013-05-15 00:50:00,52.3,46.3,29.82,West,270,1.1,-999.0,80,-99.99,,,0.00,Acu-Link.com,2013-05-15 07:50:00,
2013-05-15 01:05:00,51.3,46.0,29.81,East,90,0.0,-999.0,82,-99.99,,,0.00,Acu-Link.com,2013-05-15 08:05:00,
2013-05-15 01:21:00,50.9,45.6,29.81,NE,45,0.0,-999.0,82,-99.99,,,0.00,Acu-Link.com,2013-05-15 08:21:00,
2013-05-15 01:36:00,52.3,46.3,29.81,North,0,1.7,-999.0,80,-99.99,,,0.00,Acu-Link.com,2013-05-15 08:36:00,
2013-05-15 01:51:00,52.2,46.5,29.81,NNE,22,0.0,-999.0,81,-99.99,,,0.00,Acu-Link.com,2013-05-15 08:51:00,
2013-05-15 02:06:00,51.3,46.3,29.81,NNE,22,0.0,-999.0,83,-99.99,,,0.00,Acu-Link.com,2013-05-15 09:06:00,
2013-05-15 02:21:00,50.5,46.2,29.81,East,90,0.0,-999.0,85,-99.99,,,0.00,Acu-Link.com,2013-05-15 09:21:00,
2013-05-15 02:36:00,50.2,46.2,29.81,ESE,112,0.0,-999.0,86,-99.99,,,0.00,Acu-Link.com,2013-05-15 09:36:00,
2013-05-15 02:51:00,49.5,46.1,29.80,NNE,22,0.0,-999.0,88,-99.99,,,0.00,Acu-Link.com,2013-05-15 09:51:00,
2013-05-15 03:06:00,50.7,46.7,29.81,ESE,112,0.0,-999.0,86,-99.99,,,0.00,Acu-Link.com,2013-05-15 10:06:00,
2013-05-15 03:22:00,50.7,47.0,29.81,SSW,202,0.0,-999.0,87,-99.99,,,0.00,Acu-Link.com,2013-05-15 10:22:00,
2013-05-15 03:37:00,50.7,47.0,29.80,SW,225,0.0,-999.0,87,-99.99,,,0.00,Acu-Link.com,2013-05-15 10:37:00,
2013-05-15 03:52:00,50.4,46.7,29.80,East,90,0.0,-999.0,87,-99.99,,,0.00,Acu-Link.com,2013-05-15 10:52:00,
2013-05-15 04:22:00,49.6,45.6,29.79,NE,45,1.1,-999.0,86,-99.99,,,0.00,Acu-Link.com,2013-05-15 11:22:00,
2013-05-15 04:37:00,49.6,45.3,29.79,ENE,67,0.0,-999.0,85,-99.99,,,0.00,Acu-Link.com,2013-05-15 11:37:00,
2013-05-15 04:52:00,49.6,45.0,29.80,East,90,0.0,-999.0,84,-99.99,,,0.00,Acu-Link.com,2013-05-15 11:52:00,
2013-05-15 05:07:00,50.0,45.7,29.80,South,180,0.0,-999.0,85,-99.99,,,0.00,Acu-Link.com,2013-05-15 12:07:00,
2013-05-15 05:22:00,49.3,45.3,29.79,East,90,0.0,-999.0,86,-99.99,,,0.00,Acu-Link.com,2013-05-15 12:22:00,
2013-05-15 05:38:00,49.1,45.4,29.80,NW,315,0.0,-999.0,87,-99.99,,,0.00,Acu-Link.com,2013-05-15 12:38:00,
2013-05-15 06:08:00,49.5,46.4,29.80,WNW,292,2.2,-999.0,89,-99.99,,,0.00,Acu-Link.com,2013-05-15 13:08:00,
2013-05-15 06:23:00,49.8,46.4,29.80,NNW,337,1.7,-999.0,88,-99.99,,,0.00,Acu-Link.com,2013-05-15 13:23:00,
2013-05-15 06:38:00,50.7,46.4,29.80,NE,45,2.2,-999.0,85,-99.99,,,0.00,Acu-Link.com,2013-05-15 13:38:00,
2013-05-15 06:53:00,53.2,47.2,29.80,WSW,247,1.7,-999.0,80,-99.99,,,0.00,Acu-Link.com,2013-05-15 13:53:00,
2013-05-15 07:08:00,53.8,46.8,29.81,SSW,202,0.0,-999.0,77,-99.99,,,0.00,Acu-Link.com,2013-05-15 14:08:00,
2013-05-15 07:38:00,54.0,46.3,29.80,East,90,2.7,-999.0,75,-99.99,,,0.00,Acu-Link.com,2013-05-15 14:38:00,
2013-05-15 07:54:00,53.2,45.5,29.80,WNW,292,2.2,-999.0,75,-99.99,,,0.00,Acu-Link.com,2013-05-15 14:54:00,
2013-05-15 08:09:00,54.3,45.5,29.80,East,90,4.7,-999.0,72,-99.99,,,0.00,Acu-Link.com,2013-05-15 15:09:00,
2013-05-15 08:24:00,53.6,46.2,29.80,NE,45,1.7,-999.0,76,-99.99,,,0.00,Acu-Link.com,2013-05-15 15:24:00,
2013-05-15 08:39:00,54.3,45.8,29.79,NE,45,3.7,-999.0,73,-99.99,,,0.00,Acu-Link.com,2013-05-15 15:39:00,
2013-05-15 08:54:00,55.4,46.2,29.80,NE,45,3.2,-999.0,71,-99.99,,,0.00,Acu-Link.com,2013-05-15 15:54:00,
2013-05-15 09:09:00,55.0,45.8,29.79,West,270,1.7,-999.0,71,-99.99,,,0.00,Acu-Link.com,2013-05-15 16:09:00,
2013-05-15 09:24:00,54.5,46.0,29.79,WSW,247,3.2,-999.0,73,-99.99,,,0.00,Acu-Link.com,2013-05-15 16:24:00,
2013-05-15 09:39:00,55.0,46.1,29.79,West,270,2.2,-999.0,72,-99.99,,,0.00,Acu-Link.com,2013-05-15 16:39:00,
2013-05-15 09:54:00,55.6,46.7,29.78,SW,225,1.7,-999.0,72,-99.99,,,0.00,Acu-Link.com,2013-05-15 16:54:00,
2013-05-15 10:25:00,58.5,46.8,29.78,SSW,202,3.7,-999.0,65,-99.99,,,0.00,Acu-Link.com,2013-05-15 17:25:00,
2013-05-15 10:40:00,59.7,46.7,29.77,South,180,2.2,-999.0,62,-99.99,,,0.00,Acu-Link.com,2013-05-15 17:40:00,
2013-05-15 10:55:00,58.5,46.8,29.77,SW,225,4.2,-999.0,65,-99.99,,,0.00,Acu-Link.com,2013-05-15 17:55:00,
2013-05-15 11:10:00,60.3,48.5,29.77,SSW,202,1.1,-999.0,65,-99.99,,,0.00,Acu-Link.com,2013-05-15 18:10:00,
2013-05-15 11:40:00,61.2,47.2,29.76,NNW,337,3.7,-999.0,60,-99.99,,,0.00,Acu-Link.com,2013-05-15 18:40:00,
2013-05-15 11:55:00,62.4,46.5,29.75,SSW,202,1.1,-999.0,56,-99.99,,,0.00,Acu-Link.com,2013-05-15 18:55:00,
2013-05-15 12:26:00,64.2,41.8,29.75,ESE,112,3.2,-999.0,44,-99.99,,,0.00,Acu-Link.com,2013-05-15 19:26:00,
2013-05-15 12:56:00,62.4,40.8,29.75,SW,225,5.8,-999.0,45,-99.99,,,0.00,Acu-Link.com,2013-05-15 19:56:00,
2013-05-15 13:26:00,63.9,43.8,29.74,South,180,1.7,-999.0,48,-99.99,,,0.00,Acu-Link.com,2013-05-15 20:26:00,
2013-05-15 13:41:00,63.5,45.0,29.74,SSW,202,3.7,-999.0,51,-99.99,,,0.00,Acu-Link.com,2013-05-15 20:41:00,
2013-05-15 14:11:00,62.8,46.4,29.74,SSW,202,5.3,-999.0,55,-99.99,,,0.00,Acu-Link.com,2013-05-15 21:11:00,
2013-05-15 14:41:00,62.8,46.4,29.74,SW,225,6.8,-999.0,55,-99.99,,,0.00,Acu-Link.com,2013-05-15 21:41:00,
2013-05-15 14:57:00,62.8,46.9,29.74,SSE,157,2.2,-999.0,56,-99.99,,,0.00,Acu-Link.com,2013-05-15 21:57:00,
2013-05-15 15:12:00,61.2,47.2,29.75,SSW,202,5.3,-999.0,60,-99.99,,,0.00,Acu-Link.com,2013-05-15 22:12:00,
2013-05-15 15:27:00,61.5,47.9,29.74,SW,225,3.2,-999.0,61,-99.99,,,0.00,Acu-Link.com,2013-05-15 22:27:00,
2013-05-15 15:42:00,61.0,48.7,29.74,SW,225,1.1,-999.0,64,-99.99,,,0.00,Acu-Link.com,2013-05-15 22:42:00,
2013-05-15 15:57:00,59.2,49.0,29.75,SSW,202,9.9,-999.0,69,-99.99,,,0.00,Acu-Link.com,2013-05-15 22:57:00,
2013-05-15 16:12:00,58.1,49.1,29.75,SW,225,3.2,-999.0,72,-99.99,,,0.00,Acu-Link.com,2013-05-15 23:12:00,
2013-05-15 16:27:00,57.2,48.6,29.75,SE,135,2.2,-999.0,73,-99.99,,,0.00,Acu-Link.com,2013-05-15 23:27:00,
2013-05-15 16:42:00,57.0,49.5,29.75,East,90,0.0,-999.0,76,-99.99,,,0.00,Acu-Link.com,2013-05-15 23:42:00,
2013-05-15 16:57:00,56.3,49.2,29.75,ENE,67,3.7,-999.0,77,-99.99,,,0.00,Acu-Link.com,2013-05-15 23:57:00,
2013-05-15 17:28:00,56.3,50.9,29.75,ESE,112,2.7,-999.0,82,-99.99,,,0.01,Acu-Link.com,2013-05-16 00:28:00,
2013-05-15 17:43:00,56.7,50.6,29.74,ESE,112,0.0,-999.0,80,-99.99,,,0.01,Acu-Link.com,2013-05-16 00:43:00,
2013-05-15 17:58:00,57.4,50.6,29.74,SE,135,0.0,-999.0,78,-99.99,,,0.01,Acu-Link.com,2013-05-16 00:58:00,
2013-05-15 18:13:00,56.7,50.6,29.74,SSW,202,4.2,-999.0,80,-99.99,,,0.01,Acu-Link.com,2013-05-16 01:13:00,
2013-05-15 18:28:00,56.7,50.9,29.73,South,180,0.0,-999.0,81,-99.99,,,0.01,Acu-Link.com,2013-05-16 01:28:00,
2013-05-15 18:43:00,57.0,51.9,29.73,ESE,112,0.0,-999.0,83,-99.99,,,0.01,Acu-Link.com,2013-05-16 01:43:00,
2013-05-15 19:14:00,57.0,52.2,29.74,East,90,0.0,-999.0,84,-99.99,,,0.02,Acu-Link.com,2013-05-16 02:14:00,
2013-05-15 19:29:00,56.5,53.0,29.73,ENE,67,1.1,-999.0,88,-99.99,,,0.02,Acu-Link.com,2013-05-16 02:29:00,
2013-05-15 19:44:00,56.1,53.2,29.72,ESE,112,0.0,-999.0,90,-99.99,,,0.02,Acu-Link.com,2013-05-16 02:44:00,
2013-05-15 19:59:00,55.8,52.9,29.73,ESE,112,1.7,-999.0,90,-99.99,,,0.02,Acu-Link.com,2013-05-16 02:59:00,
2013-05-15 20:14:00,55.4,53.1,29.73,ESE,112,3.7,-999.0,92,-99.99,,,0.02,Acu-Link.com,2013-05-16 03:14:00,
2013-05-15 20:45:00,54.7,53.0,29.73,ESE,112,2.2,-999.0,94,-99.99,,,0.02,Acu-Link.com,2013-05-16 03:45:00,
2013-05-15 21:16:00,54.9,53.2,29.73,ESE,112,2.2,-999.0,94,-99.99,,,0.02,Acu-Link.com,2013-05-16 04:16:00,
2013-05-15 21:31:00,54.7,53.0,29.73,NE,45,2.7,-999.0,94,-99.99,,,0.02,Acu-Link.com,2013-05-16 04:31:00,
2013-05-15 21:46:00,54.9,53.2,29.73,SSW,202,0.0,-999.0,94,-99.99,,,0.02,Acu-Link.com,2013-05-16 04:46:00,
2013-05-15 22:01:00,55.0,52.4,29.74,South,180,0.0,-999.0,91,-99.99,,,0.02,Acu-Link.com,2013-05-16 05:01:00,
2013-05-15 22:16:00,54.5,52.2,29.74,South,180,1.1,-999.0,92,-99.99,,,0.02,Acu-Link.com,2013-05-16 05:16:00,
2013-05-15 22:33:00,54.1,52.4,29.74,SSE,157,1.1,-999.0,94,-99.99,,,0.02,Acu-Link.com,2013-05-16 05:33:00,
2013-05-15 22:48:00,54.3,52.6,29.74,South,180,1.1,-999.0,94,-99.99,,,0.02,Acu-Link.com,2013-05-16 05:48:00,
2013-05-15 23:03:00,54.3,53.2,29.73,ESE,112,2.2,-999.0,96,-99.99,,,0.02,Acu-Link.com,2013-05-16 06:03:00,
2013-05-15 23:18:00,53.8,53.2,29.72,NNE,22,3.7,-999.0,98,-99.99,,,0.02,Acu-Link.com,2013-05-16 06:18:00,
2013-05-15 23:33:00,54.3,53.2,29.73,SSW,202,0.0,-999.0,96,-99.99,,,0.02,Acu-Link.com,2013-05-16 06:33:00,
2013-05-15 23:48:00,54.3,53.2,29.72,East,90,0.0,-999.0,96,-99.99,,,0.02,Acu-Link.com,2013-05-16 06:48:00,